To NAV CANADA Home Page Login to a new session Search on AWWS site Feedback and Comments Disclaimer Vers la page française équivalente Tips FAQ What's new on the site To the Forecasts and Observations / NOTAM section To "File a Flight Plan" website Publications and other links Update of the User's profile FIC Telephone Numbers My Weather Data Folder Route Weather Data Regional Weather Data Local Weather Data To the Forecasts and Observations / NOTAM section
Request Generated 03/23/2017 at 00:09:36 UTC . Weather information available at that time is displayed.

METAR/TAF

WINDSOR/ON    

METAR CYQG 230000Z 13004KT 15SM FEW250 M03/M08 A3055 RMK CI2 SLP357=
METAR CYQG 222300Z 08007KT 15SM SCT250 M01/M10 A3054 RMK CI4
CONTRAILS SLP354=
METAR CYQG 222200Z 08009KT 040V100 15SM FEW040 FEW250 M00/M10 A3054
RMK CU1CI1 CU TR SLP353=

TAF CYQG 222338Z 2300/2324 08007KT P6SM SCT250
FM231600 13012KT P6SM BKN120
FM231900 12010KT P6SM OVC080
RMK NXT FCST BY 230600Z=
Your time UTC time
Weather data provided by Environment Canada and NAV CANADA